sensor_id;sensor_type;location;lat;lon;timestamp;temperature;humidity
68248;SHT30;55064;49.636;12.164;2022-10-18T00:02:20;12.10;91.48
68248;SHT30;55064;49.636;12.164;2022-10-18T00:04:46;12.04;91.69
68248;SHT30;55064;49.636;12.164;2022-10-18T00:07:13;12.06;91.38
68248;SHT30;55064;49.636;12.164;2022-10-18T00:09:39;12.06;91.23
68248;SHT30;55064;49.636;12.164;2022-10-18T00:12:06;12.04;91.20
68248;SHT30;55064;49.636;12.164;2022-10-18T00:14:34;12.01;91.03
68248;SHT30;55064;49.636;12.164;2022-10-18T00:17:01;11.99;91.13
68248;SHT30;55064;49.636;12.164;2022-10-18T00:19:28;11.90;91.45
68248;SHT30;55064;49.636;12.164;2022-10-18T00:21:54;11.89;91.40
68248;SHT30;55064;49.636;12.164;2022-10-18T00:24:21;11.82;91.49
68248;SHT30;55064;49.636;12.164;2022-10-18T00:26:46;11.78;91.83
68248;SHT30;55064;49.636;12.164;2022-10-18T00:29:15;11.79;91.90
68248;SHT30;55064;49.636;12.164;2022-10-18T00:31:42;11.79;92.34
68248;SHT30;55064;49.636;12.164;2022-10-18T00:34:13;11.82;92.07
68248;SHT30;55064;49.636;12.164;2022-10-18T00:36:39;11.75;91.74
68248;SHT30;55064;49.636;12.164;2022-10-18T00:39:06;11.72;91.55
68248;SHT30;55064;49.636;12.164;2022-10-18T00:41:34;11.69;91.27
68248;SHT30;55064;49.636;12.164;2022-10-18T00:46:33;11.45;91.54
68248;SHT30;55064;49.636;12.164;2022-10-18T00:49:03;11.44;91.63
68248;SHT30;55064;49.636;12.164;2022-10-18T00:51:35;11.44;91.56
68248;SHT30;55064;49.636;12.164;2022-10-18T00:54:02;11.39;91.77
68248;SHT30;55064;49.636;12.164;2022-10-18T00:56:28;11.38;91.72
68248;SHT30;55064;49.636;12.164;2022-10-18T00:58:56;11.30;91.78
68248;SHT30;55064;49.636;12.164;2022-10-18T01:01:24;11.27;91.79
68248;SHT30;55064;49.636;12.164;2022-10-18T01:03:51;11.30;91.63
68248;SHT30;55064;49.636;12.164;2022-10-18T01:06:19;11.27;91.70
68248;SHT30;55064;49.636;12.164;2022-10-18T01:11:31;11.20;91.81
68248;SHT30;55064;49.636;12.164;2022-10-18T01:14:12;11.16;92.31
68248;SHT30;55064;49.636;12.164;2022-10-18T01:19:37;11.11;92.90
68248;SHT30;55064;49.636;12.164;2022-10-18T01:24:54;11.11;93.63
68248;SHT30;55064;49.636;12.164;2022-10-18T01:27:42;11.24;93.60
68248;SHT30;55064;49.636;12.164;2022-10-18T01:35:47;11.27;93.50
68248;SHT30;55064;49.636;12.164;2022-10-18T01:38:15;11.25;93.11
68248;SHT30;55064;49.636;12.164;2022-10-18T01:40:44;11.31;93.07
68248;SHT30;55064;49.636;12.164;2022-10-18T01:43:13;11.31;92.85
68248;SHT30;55064;49.636;12.164;2022-10-18T01:45:42;11.28;92.89
68248;SHT30;55064;49.636;12.164;2022-10-18T01:48:09;11.24;93.13
68248;SHT30;55064;49.636;12.164;2022-10-18T01:50:35;11.24;93.01
68248;SHT30;55064;49.636;12.164;2022-10-18T01:53:02;11.27;93.45
68248;SHT30;55064;49.636;12.164;2022-10-18T01:55:37;11.23;93.62
68248;SHT30;55064;49.636;12.164;2022-10-18T01:58:19;11.17;93.62
68248;SHT30;55064;49.636;12.164;2022-10-18T02:00:49;11.14;93.89
68248;SHT30;55064;49.636;12.164;2022-10-18T02:03:26;11.07;94.54
68248;SHT30;55064;49.636;12.164;2022-10-18T02:06:18;11.06;94.13
68248;SHT30;55064;49.636;12.164;2022-10-18T02:08:51;11.04;93.94
68248;SHT30;55064;49.636;12.164;2022-10-18T02:11:21;11.00;94.18
68248;SHT30;55064;49.636;12.164;2022-10-18T02:13:56;10.95;94.27
68248;SHT30;55064;49.636;12.164;2022-10-18T02:16:27;10.95;94.33
68248;SHT30;55064;49.636;12.164;2022-10-18T02:19:11;10.83;94.87
68248;SHT30;55064;49.636;12.164;2022-10-18T02:21:42;10.84;94.80
68248;SHT30;55064;49.636;12.164;2022-10-18T02:24:14;10.73;94.81
68248;SHT30;55064;49.636;12.164;2022-10-18T02:26:45;10.69;94.71
68248;SHT30;55064;49.636;12.164;2022-10-18T02:29:12;10.77;94.03
68248;SHT30;55064;49.636;12.164;2022-10-18T02:31:49;10.80;93.99
68248;SHT30;55064;49.636;12.164;2022-10-18T02:34:29;10.72;93.94
68248;SHT30;55064;49.636;12.164;2022-10-18T02:37:02;10.75;93.06
68248;SHT30;55064;49.636;12.164;2022-10-18T02:39:35;10.70;92.83
68248;SHT30;55064;49.636;12.164;2022-10-18T02:42:03;10.76;92.46
68248;SHT30;55064;49.636;12.164;2022-10-18T02:44:35;10.69;91.66
68248;SHT30;55064;49.636;12.164;2022-10-18T02:47:04;10.35;92.26
68248;SHT30;55064;49.636;12.164;2022-10-18T02:49:30;10.28;93.09
68248;SHT30;55064;49.636;12.164;2022-10-18T02:51:57;10.27;93.89
68248;SHT30;55064;49.636;12.164;2022-10-18T02:54:25;10.32;93.85
68248;SHT30;55064;49.636;12.164;2022-10-18T02:56:51;10.37;93.90
68248;SHT30;55064;49.636;12.164;2022-10-18T02:59:16;10.41;93.73
68248;SHT30;55064;49.636;12.164;2022-10-18T03:01:46;10.46;93.67
68248;SHT30;55064;49.636;12.164;2022-10-18T03:04:12;10.41;94.47
68248;SHT30;55064;49.636;12.164;2022-10-18T03:06:39;10.44;94.47
68248;SHT30;55064;49.636;12.164;2022-10-18T03:09:08;10.52;94.43
68248;SHT30;55064;49.636;12.164;2022-10-18T03:11:34;10.49;95.20
68248;SHT30;55064;49.636;12.164;2022-10-18T03:13:59;10.40;95.67
68248;SHT30;55064;49.636;12.164;2022-10-18T03:16:24;10.44;95.27
68248;SHT30;55064;49.636;12.164;2022-10-18T03:18:52;10.51;94.78
68248;SHT30;55064;49.636;12.164;2022-10-18T03:21:17;10.53;94.79
68248;SHT30;55064;49.636;12.164;2022-10-18T03:23:48;10.58;94.76
68248;SHT30;55064;49.636;12.164;2022-10-18T03:26:16;10.61;94.86
68248;SHT30;55064;49.636;12.164;2022-10-18T03:28:41;10.63;94.85
68248;SHT30;55064;49.636;12.164;2022-10-18T03:31:07;10.56;95.60
68248;SHT30;55064;49.636;12.164;2022-10-18T03:33:32;10.53;95.31
68248;SHT30;55064;49.636;12.164;2022-10-18T03:35:58;10.53;94.98
68248;SHT30;55064;49.636;12.164;2022-10-18T03:38:28;10.48;95.89
68248;SHT30;55064;49.636;12.164;2022-10-18T03:40:54;10.48;95.47
68248;SHT30;55064;49.636;12.164;2022-10-18T03:43:22;10.51;95.65
68248;SHT30;55064;49.636;12.164;2022-10-18T03:45:50;10.55;95.98
68248;SHT30;55064;49.636;12.164;2022-10-18T03:48:18;10.44;96.22
68248;SHT30;55064;49.636;12.164;2022-10-18T03:50:46;10.49;95.58
68248;SHT30;55064;49.636;12.164;2022-10-18T03:53:11;10.52;95.22
68248;SHT30;55064;49.636;12.164;2022-10-18T03:55:39;10.56;94.98
68248;SHT30;55064;49.636;12.164;2022-10-18T03:58:07;10.52;94.58
68248;SHT30;55064;49.636;12.164;2022-10-18T04:00:32;10.45;94.80
68248;SHT30;55064;49.636;12.164;2022-10-18T04:02:58;10.44;95.53
68248;SHT30;55064;49.636;12.164;2022-10-18T04:05:26;10.40;95.46
68248;SHT30;55064;49.636;12.164;2022-10-18T04:07:57;10.44;94.94
68248;SHT30;55064;49.636;12.164;2022-10-18T04:10:22;10.45;94.45
68248;SHT30;55064;49.636;12.164;2022-10-18T04:12:48;10.46;94.50
68248;SHT30;55064;49.636;12.164;2022-10-18T04:15:15;10.45;94.40
68248;SHT30;55064;49.636;12.164;2022-10-18T04:17:41;10.45;94.27
68248;SHT30;55064;49.636;12.164;2022-10-18T04:20:07;10.42;94.27
68248;SHT30;55064;49.636;12.164;2022-10-18T04:22:32;10.37;94.32
68248;SHT30;55064;49.636;12.164;2022-10-18T04:25:00;10.38;94.43
68248;SHT30;55064;49.636;12.164;2022-10-18T04:27:28;10.38;94.50
68248;SHT30;55064;49.636;12.164;2022-10-18T04:29:56;10.34;94.28
68248;SHT30;55064;49.636;12.164;2022-10-18T04:32:26;10.32;94.83
68248;SHT30;55064;49.636;12.164;2022-10-18T04:34:53;10.24;95.65
68248;SHT30;55064;49.636;12.164;2022-10-18T04:37:18;10.14;96.17
68248;SHT30;55064;49.636;12.164;2022-10-18T04:39:44;10.18;95.71
68248;SHT30;55064;49.636;12.164;2022-10-18T04:42:12;10.17;96.22
68248;SHT30;55064;49.636;12.164;2022-10-18T04:44:38;10.17;96.01
68248;SHT30;55064;49.636;12.164;2022-10-18T04:47:03;10.13;96.18
68248;SHT30;55064;49.636;12.164;2022-10-18T04:49:29;10.13;95.96
68248;SHT30;55064;49.636;12.164;2022-10-18T04:51:54;10.08;95.68
68248;SHT30;55064;49.636;12.164;2022-10-18T04:54:19;10.13;95.56
68248;SHT30;55064;49.636;12.164;2022-10-18T04:56:47;10.13;95.58
68248;SHT30;55064;49.636;12.164;2022-10-18T04:59:13;10.08;95.35
68248;SHT30;55064;49.636;12.164;2022-10-18T05:01:41;10.11;95.10
68248;SHT30;55064;49.636;12.164;2022-10-18T05:04:11;10.08;95.05
68248;SHT30;55064;49.636;12.164;2022-10-18T05:06:39;10.03;95.29
68248;SHT30;55064;49.636;12.164;2022-10-18T05:09:04;10.01;95.19
68248;SHT30;55064;49.636;12.164;2022-10-18T05:11:32;10.01;94.77
68248;SHT30;55064;49.636;12.164;2022-10-18T05:13:58;10.07;94.58
68248;SHT30;55064;49.636;12.164;2022-10-18T05:16:23;10.06;94.88
68248;SHT30;55064;49.636;12.164;2022-10-18T05:18:48;10.00;95.60
68248;SHT30;55064;49.636;12.164;2022-10-18T05:21:14;9.86;96.61
68248;SHT30;55064;49.636;12.164;2022-10-18T05:23:39;9.87;96.58
68248;SHT30;55064;49.636;12.164;2022-10-18T05:26:07;9.87;96.66
68248;SHT30;55064;49.636;12.164;2022-10-18T05:28:37;9.91;96.19
68248;SHT30;55064;49.636;12.164;2022-10-18T05:31:08;9.89;96.65
68248;SHT30;55064;49.636;12.164;2022-10-18T05:33:36;9.96;96.03
68248;SHT30;55064;49.636;12.164;2022-10-18T05:36:02;9.90;96.44
68248;SHT30;55064;49.636;12.164;2022-10-18T05:38:29;9.85;96.53
68248;SHT30;55064;49.636;12.164;2022-10-18T05:41:03;9.77;96.63
68248;SHT30;55064;49.636;12.164;2022-10-18T05:43:33;9.79;96.20
68248;SHT30;55064;49.636;12.164;2022-10-18T05:46:01;9.79;96.67
68248;SHT30;55064;49.636;12.164;2022-10-18T05:48:29;9.79;96.57
68248;SHT30;55064;49.636;12.164;2022-10-18T05:50:57;9.85;96.00
68248;SHT30;55064;49.636;12.164;2022-10-18T05:53:25;9.85;96.11
68248;SHT30;55064;49.636;12.164;2022-10-18T05:55:53;9.86;96.50
68248;SHT30;55064;49.636;12.164;2022-10-18T05:58:18;9.85;96.47
68248;SHT30;55064;49.636;12.164;2022-10-18T06:00:46;9.87;96.46
68248;SHT30;55064;49.636;12.164;2022-10-18T06:03:17;10.00;95.89
68248;SHT30;55064;49.636;12.164;2022-10-18T06:05:44;10.11;95.66
68248;SHT30;55064;49.636;12.164;2022-10-18T06:08:12;10.15;95.50
68248;SHT30;55064;49.636;12.164;2022-10-18T06:10:40;10.24;95.36
68248;SHT30;55064;49.636;12.164;2022-10-18T06:13:05;10.21;95.89
68248;SHT30;55064;49.636;12.164;2022-10-18T06:15:33;10.22;96.05
68248;SHT30;55064;49.636;12.164;2022-10-18T06:18:01;10.18;96.50
68248;SHT30;55064;49.636;12.164;2022-10-18T06:20:29;10.25;96.09
68248;SHT30;55064;49.636;12.164;2022-10-18T06:22:57;10.34;96.21
68248;SHT30;55064;49.636;12.164;2022-10-18T06:25:22;10.44;96.20
68248;SHT30;55064;49.636;12.164;2022-10-18T06:27:51;10.42;95.85
68248;SHT30;55064;49.636;12.164;2022-10-18T06:30:19;10.45;95.93
68248;SHT30;55064;49.636;12.164;2022-10-18T06:32:46;10.46;95.86
68248;SHT30;55064;49.636;12.164;2022-10-18T06:35:14;10.51;95.94
68248;SHT30;55064;49.636;12.164;2022-10-18T06:37:39;10.48;95.89
68248;SHT30;55064;49.636;12.164;2022-10-18T06:40:05;10.51;95.81
68248;SHT30;55064;49.636;12.164;2022-10-18T06:42:33;10.53;95.64
68248;SHT30;55064;49.636;12.164;2022-10-18T06:44:59;10.53;95.86
68248;SHT30;55064;49.636;12.164;2022-10-18T06:47:29;10.38;96.70
68248;SHT30;55064;49.636;12.164;2022-10-18T06:49:55;10.42;96.43
68248;SHT30;55064;49.636;12.164;2022-10-18T06:52:22;10.41;96.76
68248;SHT30;55064;49.636;12.164;2022-10-18T06:54:50;10.51;96.00
68248;SHT30;55064;49.636;12.164;2022-10-18T06:57:19;10.58;95.89
68248;SHT30;55064;49.636;12.164;2022-10-18T06:59:46;10.63;95.85
68248;SHT30;55064;49.636;12.164;2022-10-18T07:02:15;10.58;95.98
68248;SHT30;55064;49.636;12.164;2022-10-18T07:04:44;10.65;95.42
68248;SHT30;55064;49.636;12.164;2022-10-18T07:07:14;10.70;95.72
68248;SHT30;55064;49.636;12.164;2022-10-18T07:09:44;10.75;95.45
68248;SHT30;55064;49.636;12.164;2022-10-18T07:12:16;10.87;95.48
68248;SHT30;55064;49.636;12.164;2022-10-18T07:14:42;10.90;95.24
68248;SHT30;55064;49.636;12.164;2022-10-18T07:17:11;10.86;95.61
68248;SHT30;55064;49.636;12.164;2022-10-18T07:19:37;10.92;95.64
68248;SHT30;55064;49.636;12.164;2022-10-18T07:22:02;10.93;95.25
68248;SHT30;55064;49.636;12.164;2022-10-18T07:24:30;11.00;95.43
68248;SHT30;55064;49.636;12.164;2022-10-18T07:26:59;11.03;95.11
68248;SHT30;55064;49.636;12.164;2022-10-18T07:29:30;11.08;95.25
68248;SHT30;55064;49.636;12.164;2022-10-18T07:31:57;11.17;95.18
68248;SHT30;55064;49.636;12.164;2022-10-18T07:34:23;11.13;94.76
68248;SHT30;55064;49.636;12.164;2022-10-18T07:36:50;11.16;95.21
68248;SHT30;55064;49.636;12.164;2022-10-18T07:39:23;11.27;95.72
68248;SHT30;55064;49.636;12.164;2022-10-18T07:41:49;11.38;95.74
68248;SHT30;55064;49.636;12.164;2022-10-18T07:44:16;11.44;95.36
68248;SHT30;55064;49.636;12.164;2022-10-18T07:46:42;11.44;95.22
68248;SHT30;55064;49.636;12.164;2022-10-18T07:49:07;11.52;95.77
68248;SHT30;55064;49.636;12.164;2022-10-18T07:51:37;11.58;95.52
68248;SHT30;55064;49.636;12.164;2022-10-18T07:54:03;11.62;95.42
68248;SHT30;55064;49.636;12.164;2022-10-18T07:56:28;11.69;95.43
68248;SHT30;55064;49.636;12.164;2022-10-18T07:58:54;11.63;94.95
68248;SHT30;55064;49.636;12.164;2022-10-18T08:01:22;11.68;95.10
68248;SHT30;55064;49.636;12.164;2022-10-18T08:03:48;11.68;95.14
68248;SHT30;55064;49.636;12.164;2022-10-18T08:06:18;11.71;95.08
68248;SHT30;55064;49.636;12.164;2022-10-18T08:08:49;11.66;95.16
68248;SHT30;55064;49.636;12.164;2022-10-18T08:11:19;11.78;95.10
68248;SHT30;55064;49.636;12.164;2022-10-18T08:13:47;11.90;95.03
68248;SHT30;55064;49.636;12.164;2022-10-18T08:16:17;12.04;94.65
68248;SHT30;55064;49.636;12.164;2022-10-18T08:18:42;12.24;94.31
68248;SHT30;55064;49.636;12.164;2022-10-18T08:21:09;12.30;93.70
68248;SHT30;55064;49.636;12.164;2022-10-18T08:23:38;12.44;93.90
68248;SHT30;55064;49.636;12.164;2022-10-18T08:26:10;12.46;94.30
68248;SHT30;55064;49.636;12.164;2022-10-18T08:28:41;12.45;94.55
68248;SHT30;55064;49.636;12.164;2022-10-18T08:31:15;12.48;94.52
68248;SHT30;55064;49.636;12.164;2022-10-18T08:33:46;12.61;94.86
68248;SHT30;55064;49.636;12.164;2022-10-18T08:36:14;12.78;95.05
68248;SHT30;55064;49.636;12.164;2022-10-18T08:38:40;12.92;94.27
68248;SHT30;55064;49.636;12.164;2022-10-18T08:46:46;13.45;93.84
68248;SHT30;55064;49.636;12.164;2022-10-18T08:49:30;13.65;93.83
68248;SHT30;55064;49.636;12.164;2022-10-18T08:51:59;13.81;93.86
68248;SHT30;55064;49.636;12.164;2022-10-18T08:54:38;13.89;93.48
68248;SHT30;55064;49.636;12.164;2022-10-18T08:57:13;13.99;93.58
68248;SHT30;55064;49.636;12.164;2022-10-18T08:59:42;14.09;93.14
68248;SHT30;55064;49.636;12.164;2022-10-18T09:16:02;14.79;92.54
68248;SHT30;55064;49.636;12.164;2022-10-18T09:23:47;15.07;92.45
68248;SHT30;55064;49.636;12.164;2022-10-18T09:26:24;15.24;91.85
68248;SHT30;55064;49.636;12.164;2022-10-18T09:35:00;15.94;89.45
68248;SHT30;55064;49.636;12.164;2022-10-18T09:37:29;16.32;88.43
68248;SHT30;55064;49.636;12.164;2022-10-18T09:40:24;16.54;86.70
68248;SHT30;55064;49.636;12.164;2022-10-18T09:42:59;16.51;86.62
68248;SHT30;55064;49.636;12.164;2022-10-18T09:45:35;16.27;87.23
68248;SHT30;55064;49.636;12.164;2022-10-18T09:48:22;16.47;86.92
68248;SHT30;55064;49.636;12.164;2022-10-18T09:51:15;16.64;86.01
68248;SHT30;55064;49.636;12.164;2022-10-18T09:54:02;16.96;84.95
68248;SHT30;55064;49.636;12.164;2022-10-18T09:56:46;16.81;85.00
68248;SHT30;55064;49.636;12.164;2022-10-18T09:59:48;16.85;84.51
68248;SHT30;55064;49.636;12.164;2022-10-18T10:02:22;16.74;84.33
68248;SHT30;55064;49.636;12.164;2022-10-18T10:04:51;16.81;84.17
68248;SHT30;55064;49.636;12.164;2022-10-18T10:07:25;16.87;83.83
68248;SHT30;55064;49.636;12.164;2022-10-18T10:12:43;17.15;83.34
68248;SHT30;55064;49.636;12.164;2022-10-18T10:15:21;17.29;82.88
68248;SHT30;55064;49.636;12.164;2022-10-18T10:18:17;17.25;83.10
68248;SHT30;55064;49.636;12.164;2022-10-18T10:20:46;17.12;83.53
68248;SHT30;55064;49.636;12.164;2022-10-18T10:23:15;17.16;83.25
68248;SHT30;55064;49.636;12.164;2022-10-18T10:25:50;17.23;83.09
68248;SHT30;55064;49.636;12.164;2022-10-18T10:28:20;17.37;83.10
68248;SHT30;55064;49.636;12.164;2022-10-18T10:30:48;17.75;82.39
68248;SHT30;55064;49.636;12.164;2022-10-18T10:33:37;17.97;81.94
68248;SHT30;55064;49.636;12.164;2022-10-18T10:36:19;18.15;81.11
68248;SHT30;55064;49.636;12.164;2022-10-18T10:41:39;18.71;78.37
68248;SHT30;55064;49.636;12.164;2022-10-18T10:44:19;18.85;78.19
68248;SHT30;55064;49.636;12.164;2022-10-18T10:46:48;19.02;78.37
68248;SHT30;55064;49.636;12.164;2022-10-18T10:49:23;19.02;78.29
68248;SHT30;55064;49.636;12.164;2022-10-18T10:52:00;19.16;77.77
68248;SHT30;55064;49.636;12.164;2022-10-18T10:54:37;19.39;76.73
68248;SHT30;55064;49.636;12.164;2022-10-18T10:59:43;18.94;77.86
68248;SHT30;55064;49.636;12.164;2022-10-18T11:04:49;19.56;76.78
68248;SHT30;55064;49.636;12.164;2022-10-18T11:20:44;20.35;74.27
68248;SHT30;55064;49.636;12.164;2022-10-18T11:23:12;20.18;74.17
68248;SHT30;55064;49.636;12.164;2022-10-18T11:42:27;20.00;75.25
68248;SHT30;55064;49.636;12.164;2022-10-18T11:50:14;19.49;77.49
68248;SHT30;55064;49.636;12.164;2022-10-18T11:55:58;19.52;77.31
68248;SHT30;55064;49.636;12.164;2022-10-18T12:01:10;19.46;78.12
68248;SHT30;55064;49.636;12.164;2022-10-18T12:06:20;19.39;78.40
68248;SHT30;55064;49.636;12.164;2022-10-18T12:08:53;19.28;78.74
68248;SHT30;55064;49.636;12.164;2022-10-18T12:11:26;19.28;77.49
68248;SHT30;55064;49.636;12.164;2022-10-18T12:13:55;19.35;76.64
68248;SHT30;55064;49.636;12.164;2022-10-18T12:16:24;19.32;77.07
68248;SHT30;55064;49.636;12.164;2022-10-18T12:18:57;19.28;77.18
68248;SHT30;55064;49.636;12.164;2022-10-18T12:21:25;19.23;77.47
68248;SHT30;55064;49.636;12.164;2022-10-18T12:24:00;19.25;77.15
68248;SHT30;55064;49.636;12.164;2022-10-18T12:26:29;19.19;77.63
68248;SHT30;55064;49.636;12.164;2022-10-18T12:33:57;18.49;82.55
68248;SHT30;55064;49.636;12.164;2022-10-18T12:36:36;18.25;84.57
68248;SHT30;55064;49.636;12.164;2022-10-18T12:39:11;18.04;85.37
68248;SHT30;55064;49.636;12.164;2022-10-18T12:41:39;17.89;86.75
68248;SHT30;55064;49.636;12.164;2022-10-18T12:44:15;17.82;86.67
68248;SHT30;55064;49.636;12.164;2022-10-18T12:46:43;17.57;88.09
68248;SHT30;55064;49.636;12.164;2022-10-18T12:49:11;17.40;89.66
68248;SHT30;55064;49.636;12.164;2022-10-18T12:51:49;17.23;90.59
68248;SHT30;55064;49.636;12.164;2022-10-18T12:54:21;17.20;90.91
68248;SHT30;55064;49.636;12.164;2022-10-18T12:56:48;17.16;91.11
68248;SHT30;55064;49.636;12.164;2022-10-18T13:09:33;17.12;91.90
68248;SHT30;55064;49.636;12.164;2022-10-18T13:15:05;17.02;92.59
68248;SHT30;55064;49.636;12.164;2022-10-18T13:17:59;17.01;93.13
68248;SHT30;55064;49.636;12.164;2022-10-18T13:20:37;16.94;93.20
68248;SHT30;55064;49.636;12.164;2022-10-18T13:29:03;16.95;93.13
68248;SHT30;55064;49.636;12.164;2022-10-18T13:37:01;16.81;94.22
68248;SHT30;55064;49.636;12.164;2022-10-18T13:39:30;16.77;94.03
68248;SHT30;55064;49.636;12.164;2022-10-18T13:52:17;16.74;94.63
68248;SHT30;55064;49.636;12.164;2022-10-18T14:05:54;16.67;94.51
68248;SHT30;55064;49.636;12.164;2022-10-18T14:08:27;16.63;94.27
68248;SHT30;55064;49.636;12.164;2022-10-18T14:13:37;16.67;95.07
68248;SHT30;55064;49.636;12.164;2022-10-18T14:18:50;16.65;94.66
68248;SHT30;55064;49.636;12.164;2022-10-18T14:21:26;16.65;94.91
68248;SHT30;55064;49.636;12.164;2022-10-18T14:23:58;16.63;95.07
68248;SHT30;55064;49.636;12.164;2022-10-18T14:26:26;16.64;94.87
68248;SHT30;55064;49.636;12.164;2022-10-18T14:29:06;16.64;95.07
68248;SHT30;55064;49.636;12.164;2022-10-18T14:31:39;16.65;94.83
68248;SHT30;55064;49.636;12.164;2022-10-18T14:34:11;16.68;95.05
68248;SHT30;55064;49.636;12.164;2022-10-18T14:36:45;16.71;95.18
68248;SHT30;55064;49.636;12.164;2022-10-18T14:39:19;16.78;94.65
68248;SHT30;55064;49.636;12.164;2022-10-18T14:41:51;16.77;95.46
68248;SHT30;55064;49.636;12.164;2022-10-18T14:44:29;16.78;94.39
68248;SHT30;55064;49.636;12.164;2022-10-18T14:46:59;16.88;94.72
68248;SHT30;55064;49.636;12.164;2022-10-18T14:49:25;16.92;94.22
68248;SHT30;55064;49.636;12.164;2022-10-18T14:51:55;16.92;93.92
68248;SHT30;55064;49.636;12.164;2022-10-18T14:54:32;16.94;93.90
68248;SHT30;55064;49.636;12.164;2022-10-18T14:57:06;16.92;94.33
68248;SHT30;55064;49.636;12.164;2022-10-18T14:59:43;16.94;93.78
68248;SHT30;55064;49.636;12.164;2022-10-18T15:02:18;16.84;93.70
68248;SHT30;55064;49.636;12.164;2022-10-18T15:04:46;16.81;93.83
68248;SHT30;55064;49.636;12.164;2022-10-18T15:07:14;16.77;93.66
68248;SHT30;55064;49.636;12.164;2022-10-18T15:09:43;16.74;93.94
68248;SHT30;55064;49.636;12.164;2022-10-18T15:12:12;16.74;93.80
68248;SHT30;55064;49.636;12.164;2022-10-18T15:14:41;16.85;95.17
68248;SHT30;55064;49.636;12.164;2022-10-18T15:17:14;16.89;94.31
68248;SHT30;55064;49.636;12.164;2022-10-18T15:20:00;16.98;94.65
68248;SHT30;55064;49.636;12.164;2022-10-18T15:22:29;17.02;93.90
68248;SHT30;55064;49.636;12.164;2022-10-18T15:27:35;17.11;94.34
68248;SHT30;55064;49.636;12.164;2022-10-18T15:30:08;17.09;93.29
68248;SHT30;55064;49.636;12.164;2022-10-18T15:32:46;17.11;93.70
68248;SHT30;55064;49.636;12.164;2022-10-18T15:35:19;17.11;93.71
68248;SHT30;55064;49.636;12.164;2022-10-18T15:37:47;17.18;93.71
68248;SHT30;55064;49.636;12.164;2022-10-18T15:42:51;17.14;92.93
68248;SHT30;55064;49.636;12.164;2022-10-18T15:50:58;16.94;93.23
68248;SHT30;55064;49.636;12.164;2022-10-18T15:56:31;16.89;93.27
68248;SHT30;55064;49.636;12.164;2022-10-18T15:58:59;16.88;93.51
68248;SHT30;55064;49.636;12.164;2022-10-18T16:01:45;16.79;93.18
68248;SHT30;55064;49.636;12.164;2022-10-18T16:04:32;16.71;93.32
68248;SHT30;55064;49.636;12.164;2022-10-18T16:07:03;16.65;92.96
68248;SHT30;55064;49.636;12.164;2022-10-18T16:09:28;16.60;93.46
68248;SHT30;55064;49.636;12.164;2022-10-18T16:11:59;16.54;93.58
68248;SHT30;55064;49.636;12.164;2022-10-18T16:14:25;16.49;93.56
68248;SHT30;55064;49.636;12.164;2022-10-18T16:16:58;16.37;93.48
68248;SHT30;55064;49.636;12.164;2022-10-18T16:19:26;16.34;93.68
68248;SHT30;55064;49.636;12.164;2022-10-18T16:21:54;16.27;93.63
68248;SHT30;55064;49.636;12.164;2022-10-18T16:24:20;16.22;94.06
68248;SHT30;55064;49.636;12.164;2022-10-18T16:26:48;16.17;93.98
68248;SHT30;55064;49.636;12.164;2022-10-18T16:29:21;16.20;93.89
68248;SHT30;55064;49.636;12.164;2022-10-18T16:31:50;16.23;94.15
68248;SHT30;55064;49.636;12.164;2022-10-18T16:34:22;16.24;94.16
68248;SHT30;55064;49.636;12.164;2022-10-18T16:36:51;16.26;94.06
68248;SHT30;55064;49.636;12.164;2022-10-18T16:39:19;16.26;94.16
68248;SHT30;55064;49.636;12.164;2022-10-18T16:41:45;16.20;94.18
68248;SHT30;55064;49.636;12.164;2022-10-18T16:44:13;16.13;93.79
68248;SHT30;55064;49.636;12.164;2022-10-18T16:46:42;16.06;94.51
68248;SHT30;55064;49.636;12.164;2022-10-18T16:49:17;15.95;94.76
68248;SHT30;55064;49.636;12.164;2022-10-18T16:51:45;15.88;94.71
68248;SHT30;55064;49.636;12.164;2022-10-18T16:54:13;15.79;95.06
68248;SHT30;55064;49.636;12.164;2022-10-18T16:56:43;15.74;94.92
68248;SHT30;55064;49.636;12.164;2022-10-18T16:59:20;15.67;95.07
68248;SHT30;55064;49.636;12.164;2022-10-18T17:01:47;15.55;95.54
68248;SHT30;55064;49.636;12.164;2022-10-18T17:04:15;15.48;95.46
68248;SHT30;55064;49.636;12.164;2022-10-18T17:06:45;15.41;95.95
68248;SHT30;55064;49.636;12.164;2022-10-18T17:09:14;15.39;95.81
68248;SHT30;55064;49.636;12.164;2022-10-18T17:11:44;15.34;96.11
68248;SHT30;55064;49.636;12.164;2022-10-18T17:14:09;15.31;96.11
68248;SHT30;55064;49.636;12.164;2022-10-18T17:16:35;15.29;95.91
68248;SHT30;55064;49.636;12.164;2022-10-18T17:19:05;15.26;96.26
68248;SHT30;55064;49.636;12.164;2022-10-18T17:21:31;15.18;96.74
68248;SHT30;55064;49.636;12.164;2022-10-18T17:23:59;15.16;96.78
68248;SHT30;55064;49.636;12.164;2022-10-18T17:26:30;15.14;96.62
68248;SHT30;55064;49.636;12.164;2022-10-18T17:29:02;15.16;96.68
68248;SHT30;55064;49.636;12.164;2022-10-18T17:31:30;15.09;96.78
68248;SHT30;55064;49.636;12.164;2022-10-18T17:33:56;15.10;96.87
68248;SHT30;55064;49.636;12.164;2022-10-18T17:36:22;15.13;96.73
68248;SHT30;55064;49.636;12.164;2022-10-18T17:38:56;15.14;96.67
68248;SHT30;55064;49.636;12.164;2022-10-18T17:41:24;15.18;96.71
68248;SHT30;55064;49.636;12.164;2022-10-18T17:43:49;15.19;96.67
68248;SHT30;55064;49.636;12.164;2022-10-18T17:46:15;15.19;96.60
68248;SHT30;55064;49.636;12.164;2022-10-18T17:48:43;15.26;96.77
68248;SHT30;55064;49.636;12.164;2022-10-18T17:51:11;15.26;96.92
68248;SHT30;55064;49.636;12.164;2022-10-18T17:53:39;15.31;96.63
68248;SHT30;55064;49.636;12.164;2022-10-18T17:56:05;15.34;96.50
68248;SHT30;55064;49.636;12.164;2022-10-18T17:58:34;15.43;96.40
68248;SHT30;55064;49.636;12.164;2022-10-18T18:01:11;15.36;96.42
68248;SHT30;55064;49.636;12.164;2022-10-18T18:03:39;15.36;96.42
68248;SHT30;55064;49.636;12.164;2022-10-18T18:06:19;15.34;96.37
68248;SHT30;55064;49.636;12.164;2022-10-18T18:08:48;15.34;96.23
68248;SHT30;55064;49.636;12.164;2022-10-18T18:11:16;15.33;96.08
68248;SHT30;55064;49.636;12.164;2022-10-18T18:13:42;15.33;96.08
68248;SHT30;55064;49.636;12.164;2022-10-18T18:16:13;15.30;95.73
68248;SHT30;55064;49.636;12.164;2022-10-18T18:18:39;15.36;95.72
68248;SHT30;55064;49.636;12.164;2022-10-18T18:21:07;15.37;95.52
68248;SHT30;55064;49.636;12.164;2022-10-18T18:23:33;15.33;95.67
68248;SHT30;55064;49.636;12.164;2022-10-18T18:26:00;15.36;95.51
68248;SHT30;55064;49.636;12.164;2022-10-18T18:28:28;15.37;95.31